Tatvan, Turkey

12:16 PM +03 on March 26, 2017 (GMT +0300)
Mus Air Base | | Change Station

Elev 4331 ft 38.73 °N, 41.52 °E | Updated 26 minutes ago

Clear
Clear
45 °F
Feels Like 42 °F
N
5
Wind Variable Wind from SW

Today
High -- | Low -- °F
--% Chance of Precip.
Yesterday
High -- | Low -- °F
Precip. -- in
Pressure 30.09 in
Visibility 6.2 miles
Clouds Few 4000 ft
Scattered Clouds 8000 ft
Windchill 42 °F
Dew Point 28 °F
Humidity 53%
Rainfall 0.00 in
Snow Depth Not available.
6:05 AM 6:28 PM
Waning Crescent, 4% visible
METAR LTCK 260850Z 23004KT 160V280 9999 FEW040 SCT080 07/M02 Q1019
Pressure 30.09 in
Visibility 6.2 miles
Clouds Few 4000 ft
Scattered Clouds 8000 ft
Windchill 42 °F
Dew Point 28 °F
Humidity 53%
Rainfall 0.00 in
Snow Depth Not available.
6:05 AM 6:28 PM
Waning Crescent, 4% visible
METAR LTCK 260850Z 23004KT 160V280 9999 FEW040 SCT080 07/M02 Q1019

Get Severe Weather Alerts

Thanks for signing up!

Be on the lookout for a verification email in your inbox.

You'll start receiving the daily forecast at 8 AM.

×

10-Day Weather Forecast

×

Almanac

Astronomy

Mar. 26, 2017 Rise Set
Actual Time
Civil Twilight
Nautical Twilight
Astronomical Twilight
Moon
Length of Visible Light
Length of Day
Tomorrow will be .
, % of the Moon is Illuminated

Today's Extremes

Country Highs Country Lows

Community

WunderPhotos

Upload Photos

1,962,540 photos uploaded!

WunderBlog® & News

Nearby

Air Quality

  Air Quality AQ Index Pollutant
Not available.

Snow Depth

Station Depth Elevation

Earthquake Activity

City Distance Mag. Time & Date
Minimum magnitude displayed is 2.5.

Earthquake Activity

City Distance Mag. Time & Date
Minimum magnitude displayed is 2.5.

Coastal Water Temperatures

Place Temperature

Stations

Nearby Weather Stations

Station Location Temp. Windchill Dew Point Humidity Wind Precip. Elev Updated Type